Time;durP1;ratioP1;P1;durP2;ratioP2;P2;SDS_P1;SDS_P2;PMS_P1;PMS_P2;Temp;Humidity;BMP_temperature;BMP_pressure;BME280_temperature;BME280_humidity;BME280_pressure;Samples;Min_cycle;Max_cycle;Signal;HPM_P1;HPM_P2
2021/05/21 00:00:22;;;;;;;4.20;3.00;;;13.10;99.90;;;;;;5032306;28;20547;-64
2021/05/21 00:02:47;;;;;;;3.40;3.10;;;13.10;99.90;;;;;;5019167;28;20672;-65
2021/05/21 00:05:13;;;;;;;3.00;2.80;;;13.10;99.90;;;;;;5014257;28;20204;-66
2021/05/21 00:07:39;;;;;;;3.53;3.00;;;13.10;99.90;;;;;;5026827;28;20195;-65
2021/05/21 00:10:05;;;;;;;3.10;2.90;;;13.00;99.90;;;;;;5033712;28;20178;-65
2021/05/21 00:12:31;;;;;;;4.13;2.90;;;13.00;99.90;;;;;;5016801;28;20183;-66
2021/05/21 00:14:56;;;;;;;3.20;2.80;;;13.00;99.90;;;;;;5014084;28;20549;-65
2021/05/21 00:17:22;;;;;;;5.43;3.37;;;13.00;99.90;;;;;;5028845;28;20223;-65
2021/05/21 00:19:48;;;;;;;3.77;3.10;;;13.00;99.90;;;;;;5033454;28;20680;-65
2021/05/21 00:22:13;;;;;;;3.60;2.80;;;13.00;99.90;;;;;;5018790;28;20192;-65
2021/05/21 00:24:39;;;;;;;3.53;3.23;;;13.00;99.90;;;;;;5013969;28;20168;-66
2021/05/21 00:27:05;;;;;;;3.97;2.93;;;13.10;99.90;;;;;;5025235;28;20212;-65
2021/05/21 00:29:30;;;;;;;3.07;2.87;;;13.10;99.90;;;;;;5033662;28;20171;-64
2021/05/21 00:31:56;;;;;;;4.33;3.47;;;13.10;99.90;;;;;;5023063;28;20212;-65
2021/05/21 00:34:22;;;;;;;4.77;2.80;;;13.00;99.90;;;;;;5013786;28;20165;-65
2021/05/21 00:36:47;;;;;;;3.17;2.97;;;13.10;99.90;;;;;;5021628;28;20208;-65
2021/05/21 00:39:13;;;;;;;3.70;2.90;;;13.20;99.90;;;;;;5033483;28;20683;-65
2021/05/21 00:41:39;;;;;;;3.03;2.83;;;13.20;99.90;;;;;;5026458;28;20184;-65
2021/05/21 00:44:04;;;;;;;4.53;3.10;;;13.30;99.90;;;;;;5013559;28;20208;-66
2021/05/21 00:46:30;;;;;;;3.10;2.90;;;13.40;99.90;;;;;;5030535;28;20286;-65
2021/05/21 00:48:55;;;;;;;3.27;3.00;;;13.40;99.90;;;;;;5033291;28;20194;-65
2021/05/21 00:51:21;;;;;;;3.10;2.90;;;13.50;99.90;;;;;;5016842;28;20212;-65
2021/05/21 00:53:50;;;;;;;3.00;2.80;;;13.50;99.90;;;;;;5013318;28;20255;-64
2021/05/21 00:56:15;;;;;;;3.97;2.90;;;13.50;99.90;;;;;;5027292;28;20224;-65
2021/05/21 00:58:41;;;;;;;3.57;2.90;;;13.50;99.90;;;;;;5033132;28;20295;-65
2021/05/21 01:01:07;;;;;;;3.23;2.97;;;13.50;99.90;;;;;;5019969;28;20184;-66
2021/05/21 01:03:36;;;;;;;4.13;2.90;;;13.40;99.90;;;;;;5013210;28;20183;-66
2021/05/21 01:06:02;;;;;;;3.80;2.80;;;13.40;99.90;;;;;;5023999;28;20290;-65
2021/05/21 01:08:28;;;;;;;2.90;2.70;;;13.40;99.90;;;;;;5032864;28;20255;-65
2021/05/21 01:10:54;;;;;;;3.17;2.90;;;13.40;99.90;;;;;;5022654;28;20258;-64
2021/05/21 01:13:19;;;;;;;3.07;2.90;;;13.40;99.90;;;;;;5012067;28;20168;-65
2021/05/21 01:15:45;;;;;;;3.87;2.90;;;13.40;99.90;;;;;;5020646;28;20746;-65
2021/05/21 01:18:11;;;;;;;3.10;2.90;;;13.40;99.90;;;;;;5032580;28;20256;-65
2021/05/21 01:20:37;;;;;;;6.73;3.30;;;13.40;99.90;;;;;;5025726;28;20263;-65
2021/05/21 01:23:04;;;;;;;2.90;2.70;;;13.40;99.90;;;;;;5012907;28;20665;-65
2021/05/21 01:25:31;;;;;;;3.47;3.27;;;13.30;99.90;;;;;;5017345;28;20676;-66
2021/05/21 01:28:00;;;;;;;3.33;2.93;;;13.40;99.90;;;;;;5032326;28;20195;-65
2021/05/21 01:30:27;;;;;;;4.20;3.20;;;13.40;99.90;;;;;;5028275;28;20245;-66
2021/05/21 01:32:54;;;;;;;3.20;2.80;;;13.50;99.90;;;;;;5012891;28;20168;-65
2021/05/21 01:35:20;;;;;;;3.37;3.17;;;13.50;99.90;;;;;;5013698;28;20693;-65
2021/05/21 01:37:48;;;;;;;3.17;2.97;;;13.60;99.90;;;;;;5017298;28;20719;-66
2021/05/21 01:40:15;;;;;;;3.43;3.13;;;13.60;99.90;;;;;;5032233;28;20171;-65
2021/05/21 01:42:41;;;;;;;3.20;2.90;;;13.60;99.90;;;;;;5026907;28;20199;-65
2021/05/21 01:45:09;;;;;;;6.20;3.17;;;13.70;99.90;;;;;;5012079;28;20531;-66
2021/05/21 01:47:34;;;;;;;4.37;3.10;;;13.70;99.90;;;;;;5015571;28;20261;-66
2021/05/21 01:50:01;;;;;;;3.10;2.90;;;13.70;99.90;;;;;;5031718;28;20661;-66
2021/05/21 01:52:27;;;;;;;3.40;3.10;;;13.70;99.90;;;;;;5029672;28;20221;-65
2021/05/21 01:54:52;;;;;;;3.03;2.83;;;13.60;99.90;;;;;;5012407;28;20567;-64
2021/05/21 01:57:18;;;;;;;2.97;2.77;;;13.60;99.90;;;;;;5012480;28;20200;-66
2021/05/21 01:59:44;;;;;;;7.30;3.40;;;13.60;99.90;;;;;;5031718;28;20511;-63
2021/05/21 02:02:09;;;;;;;3.10;2.90;;;13.60;99.90;;;;;;5031952;28;20176;-66
2021/05/21 02:04:38;;;;;;;3.20;2.83;;;13.60;99.90;;;;;;5013050;28;20180;-65
2021/05/21 02:07:05;;;;;;;6.37;3.37;;;13.60;99.90;;;;;;5012168;28;20204;-66
2021/05/21 02:09:55;;;;;;;4.00;2.80;;;13.60;99.90;;;;;;5029259;28;20175;-65
2021/05/21 02:12:22;;;;;;;3.10;2.90;;;13.60;99.90;;;;;;5017089;28;20188;-66
2021/05/21 02:14:47;;;;;;;3.23;2.93;;;13.50;99.90;;;;;;5012453;28;20171;-66
2021/05/21 02:17:13;;;;;;;3.10;2.90;;;13.50;99.90;;;;;;5011985;28;20265;-64
2021/05/21 02:19:39;;;;;;;3.73;2.87;;;13.40;99.90;;;;;;5029047;28;20190;-66
2021/05/21 02:22:07;;;;;;;4.43;2.83;;;13.40;99.90;;;;;;5031377;28;20176;-65
2021/05/21 02:24:34;;;;;;;3.20;2.90;;;13.30;99.90;;;;;;5018576;28;20180;-66
2021/05/21 02:27:00;;;;;;;3.67;3.00;;;13.30;99.90;;;;;;5011793;28;20200;-65
2021/05/21 02:29:26;;;;;;;3.20;2.90;;;13.20;99.90;;;;;;5026289;28;20229;-65
2021/05/21 02:31:51;;;;;;;2.80;2.60;;;13.20;99.90;;;;;;5031188;28;20641;-65
2021/05/21 02:34:17;;;;;;;3.17;2.97;;;13.10;99.90;;;;;;5018453;28;20178;-65
2021/05/21 02:36:43;;;;;;;3.83;3.47;;;13.00;99.90;;;;;;5011816;28;20192;-65
2021/05/21 02:39:08;;;;;;;3.20;3.00;;;12.90;99.90;;;;;;5022761;28;20187;-65
2021/05/21 02:41:34;;;;;;;4.60;3.10;;;12.80;99.90;;;;;;5031189;28;20548;-65
2021/05/21 02:44:00;;;;;;;3.57;3.27;;;12.80;99.90;;;;;;5028459;28;20179;-64
2021/05/21 02:46:26;;;;;;;7.20;3.67;;;12.70;99.90;;;;;;5031261;28;20302;-66
2021/05/21 02:48:52;;;;;;;3.37;3.07;;;12.60;99.90;;;;;;5029916;28;20229;-66
2021/05/21 02:51:17;;;;;;;3.10;2.90;;;12.50;99.90;;;;;;5031153;28;20175;-66
2021/05/21 02:53:43;;;;;;;4.40;3.23;;;12.50;99.90;;;;;;5019743;28;20188;-65
2021/05/21 02:56:09;;;;;;;4.87;3.40;;;12.50;99.90;;;;;;5011567;28;20271;-65
2021/05/21 02:58:34;;;;;;;4.43;3.20;;;12.50;99.90;;;;;;5021127;28;20183;-65
2021/05/21 03:01:00;;;;;;;7.83;3.37;;;12.50;99.90;;;;;;5031071;28;20183;-66
2021/05/21 03:03:25;;;;;;;4.90;3.37;;;12.50;99.90;;;;;;5022992;28;20192;-65
2021/05/21 03:05:51;;;;;;;3.13;2.93;;;12.50;99.90;;;;;;5011329;28;20204;-66
2021/05/21 03:08:17;;;;;;;3.33;3.07;;;12.50;99.90;;;;;;5024404;28;20171;-65
2021/05/21 03:10:42;;;;;;;4.30;3.17;;;12.40;99.90;;;;;;5030913;28;20175;-66
2021/05/21 03:13:08;;;;;;;3.90;3.10;;;12.40;99.90;;;;;;5019903;28;20752;-66
2021/05/21 03:15:33;;;;;;;3.50;3.30;;;12.30;99.90;;;;;;5011488;28;20184;-65
2021/05/21 03:18:00;;;;;;;4.27;3.30;;;12.20;99.90;;;;;;5020446;28;20257;-65
2021/05/21 03:20:26;;;;;;;4.53;3.50;;;12.20;99.90;;;;;;5030822;28;20167;-64
2021/05/21 03:22:51;;;;;;;4.87;3.43;;;12.10;99.90;;;;;;5023096;28;20179;-65
2021/05/21 03:25:17;;;;;;;5.40;3.83;;;12.00;99.90;;;;;;5011304;28;20173;-64
2021/05/21 03:27:43;;;;;;;3.10;2.90;;;11.90;99.90;;;;;;5017106;28;20673;-66
2021/05/21 03:30:11;;;;;;;3.17;2.97;;;11.90;99.90;;;;;;5030785;28;20175;-66
2021/05/21 03:32:37;;;;;;;4.03;3.30;;;11.80;99.90;;;;;;5026032;28;20172;-66
2021/05/21 03:35:07;;;;;;;4.37;3.63;;;11.80;99.90;;;;;;5011706;28;20660;-65
2021/05/21 03:37:33;;;;;;;4.70;3.40;;;11.70;99.90;;;;;;5018244;28;20203;-66
2021/05/21 03:39:58;;;;;;;4.20;3.90;;;11.60;99.90;;;;;;5034529;28;20644;-64
2021/05/21 03:42:24;;;;;;;3.43;3.13;;;11.60;99.90;;;;;;5032259;28;20187;-65
2021/05/21 03:44:49;;;;;;;3.50;3.20;;;11.60;99.90;;;;;;5014727;28;20179;-64
2021/05/21 03:47:15;;;;;;;6.23;3.40;;;11.60;99.90;;;;;;5014537;28;20585;-65
2021/05/21 03:49:41;;;;;;;4.87;3.57;;;11.70;99.90;;;;;;5034331;28;20176;-63
2021/05/21 03:52:06;;;;;;;3.13;3.00;;;11.70;99.90;;;;;;5034048;28;20251;-65
2021/05/21 03:54:32;;;;;;;3.60;3.30;;;11.60;99.90;;;;;;5016018;28;20183;-64
2021/05/21 03:56:58;;;;;;;3.90;3.50;;;11.60;99.90;;;;;;5014492;28;20198;-65
2021/05/21 03:59:23;;;;;;;3.90;3.20;;;11.60;99.90;;;;;;5030354;28;20206;-65
2021/05/21 04:01:49;;;;;;;3.60;3.30;;;11.60;99.90;;;;;;5033924;28;20183;-65
2021/05/21 04:04:15;;;;;;;4.97;3.73;;;11.60;99.90;;;;;;5019666;28;20681;-65
2021/05/21 04:06:41;;;;;;;3.63;3.30;;;11.50;99.90;;;;;;5014090;28;20616;-64
2021/05/21 04:09:07;;;;;;;3.77;3.30;;;11.50;99.90;;;;;;5026737;28;20203;-65
2021/05/21 04:11:34;;;;;;;3.90;3.53;;;11.50;99.90;;;;;;5033652;28;20168;-65
2021/05/21 04:14:00;;;;;;;3.73;3.37;;;11.50;99.90;;;;;;5032159;28;20233;-66
2021/05/21 04:16:26;;;;;;;4.07;3.70;;;11.50;99.90;;;;;;5099990;22;20177;-66
2021/05/21 04:18:53;;;;;;;3.63;3.40;;;11.40;99.90;;;;;;5053154;28;20248;-65
2021/05/21 04:21:19;;;;;;;5.17;3.50;;;11.40;99.90;;;;;;5053295;28;20229;-66
2021/05/21 04:23:45;;;;;;;8.23;3.23;;;11.40;99.90;;;;;;5045835;28;20179;-66
2021/05/21 04:26:10;;;;;;;3.70;3.40;;;11.40;99.90;;;;;;5032979;28;20202;-65
2021/05/21 04:28:36;;;;;;;3.67;3.40;;;11.40;99.90;;;;;;5019272;28;20214;-65
2021/05/21 04:31:02;;;;;;;3.67;3.30;;;11.40;99.90;;;;;;5033368;28;20164;-65
2021/05/21 04:33:27;;;;;;;3.10;2.90;;;11.50;99.90;;;;;;5029556;28;20185;-65
2021/05/21 04:35:53;;;;;;;3.27;3.07;;;11.60;99.90;;;;;;5013711;28;20621;-65
2021/05/21 04:38:19;;;;;;;6.80;3.60;;;11.80;99.90;;;;;;5015269;28;20211;-65
2021/05/21 04:40:44;;;;;;;3.40;3.10;;;11.90;99.90;;;;;;5033098;28;20652;-65
2021/05/21 04:43:10;;;;;;;4.27;3.43;;;12.00;99.90;;;;;;5021384;28;20188;-65
2021/05/21 04:45:36;;;;;;;3.60;3.30;;;12.10;99.90;;;;;;5013263;28;20697;-66
2021/05/21 04:48:01;;;;;;;4.37;3.07;;;12.30;99.90;;;;;;5022875;28;20197;-65
2021/05/21 04:50:27;;;;;;;5.10;3.40;;;12.40;99.90;;;;;;5033057;28;20172;-65
2021/05/21 04:52:54;;;;;;;6.97;3.20;;;12.50;99.90;;;;;;5025065;28;20173;-66
2021/05/21 04:55:19;;;;;;;3.37;3.10;;;12.50;99.90;;;;;;5013532;28;20175;-67
2021/05/21 04:57:49;;;;;;;3.83;3.53;;;12.60;99.90;;;;;;5019383;28;20298;-66
2021/05/21 05:00:15;;;;;;;3.67;3.10;;;12.60;99.90;;;;;;5031617;28;20671;-66
2021/05/21 05:02:41;;;;;;;4.10;3.00;;;12.70;99.90;;;;;;5027753;28;20258;-65
2021/05/21 05:05:07;;;;;;;4.07;3.33;;;12.80;99.90;;;;;;5031284;28;20250;-65
2021/05/21 05:07:33;;;;;;;3.90;3.20;;;12.90;99.90;;;;;;5031671;28;20582;-65
2021/05/21 05:09:58;;;;;;;3.93;3.63;;;13.00;99.90;;;;;;5031650;28;20167;-65
2021/05/21 05:12:24;;;;;;;4.53;3.07;;;13.20;99.90;;;;;;5025233;28;20181;-65
2021/05/21 05:14:49;;;;;;;3.57;3.27;;;13.30;99.90;;;;;;5012926;28;20191;-66
2021/05/21 05:17:15;;;;;;;3.60;3.30;;;13.50;99.90;;;;;;5017683;28;20211;-66
2021/05/21 05:19:41;;;;;;;3.53;3.23;;;13.50;99.90;;;;;;5031279;28;20680;-65
2021/05/21 05:22:06;;;;;;;3.33;3.13;;;13.60;99.90;;;;;;5028865;28;20184;-65
2021/05/21 05:24:34;;;;;;;3.40;3.10;;;13.70;99.90;;;;;;5012924;28;20176;-65
2021/05/21 05:27:00;;;;;;;3.40;3.10;;;13.90;99.90;;;;;;5014156;28;20211;-66
2021/05/21 05:29:26;;;;;;;3.00;2.80;;;14.00;99.90;;;;;;5032321;28;20195;-66
2021/05/21 05:31:53;;;;;;;4.90;3.10;;;14.10;99.90;;;;;;5024796;28;20200;-65
2021/05/21 05:34:19;;;;;;;3.23;3.00;;;14.20;99.90;;;;;;5012385;28;20239;-66
2021/05/21 05:36:44;;;;;;;3.43;3.00;;;14.30;99.90;;;;;;5017766;28;20285;-66
2021/05/21 05:39:10;;;;;;;3.77;3.13;;;14.40;99.90;;;;;;5032289;28;20164;-66
2021/05/21 05:41:36;;;;;;;4.70;2.90;;;14.40;99.90;;;;;;5027929;28;20649;-66
2021/05/21 05:44:02;;;;;;;4.00;3.40;;;14.30;99.90;;;;;;5012191;28;20200;-66
2021/05/21 05:46:28;;;;;;;3.70;3.00;;;14.30;99.90;;;;;;5013831;28;20685;-66
2021/05/21 05:48:54;;;;;;;5.03;3.23;;;14.20;99.90;;;;;;5031263;28;20175;-66
2021/05/21 05:51:20;;;;;;;3.93;3.20;;;14.20;99.90;;;;;;5031355;28;20621;-65
2021/05/21 05:53:46;;;;;;;5.33;3.10;;;14.20;99.90;;;;;;5012321;28;20164;-66
2021/05/21 05:56:11;;;;;;;4.33;3.10;;;14.20;99.90;;;;;;5012085;28;20203;-65
2021/05/21 05:58:39;;;;;;;5.63;3.00;;;14.20;99.90;;;;;;5028705;28;20189;-65
2021/05/21 06:01:04;;;;;;;8.83;3.43;;;14.30;99.90;;;;;;5031526;28;20259;-66
2021/05/21 06:03:30;;;;;;;6.43;3.60;;;14.40;99.90;;;;;;5015125;28;20268;-66
2021/05/21 06:05:56;;;;;;;7.70;3.00;;;14.80;99.90;;;;;;5011923;28;20286;-66
2021/05/21 06:08:22;;;;;;;4.97;2.70;;;15.20;99.90;;;;;;5026341;28;20211;-65
2021/05/21 06:10:49;;;;;;;6.97;3.00;;;15.40;99.90;;;;;;5031516;28;20163;-66
2021/05/21 06:13:14;;;;;;;6.83;3.10;;;15.80;99.90;;;;;;5025052;28;20187;-66
2021/05/21 06:15:40;;;;;;;7.67;3.30;;;16.00;99.90;;;;;;5031468;28;20907;-66
2021/05/21 06:18:06;;;;;;;5.93;3.17;;;15.90;99.90;;;;;;5019770;28;20258;-65
2021/05/21 06:20:34;;;;;;;4.17;3.20;;;15.60;99.90;;;;;;5011279;28;20170;-65
2021/05/21 06:23:02;;;;;;;6.97;3.37;;;15.50;99.90;;;;;;5012422;28;20203;-66
2021/05/21 06:25:51;;;;;;;5.90;3.43;;;15.40;99.90;;;;;;5011585;28;20645;-65
2021/05/21 06:28:20;;;;;;;6.87;3.40;;;15.40;99.90;;;;;;5011735;28;20198;-66
2021/05/21 06:30:46;;;;;;;7.63;3.30;;;15.40;99.90;;;;;;5011130;28;20195;-65
2021/05/21 06:33:12;;;;;;;5.10;3.13;;;15.40;99.90;;;;;;5021205;28;20543;-66
2021/05/21 06:35:38;;;;;;;5.50;3.30;;;15.40;99.90;;;;;;5031064;28;20769;-66
2021/05/21 06:38:04;;;;;;;8.13;3.83;;;15.50;99.90;;;;;;5022869;28;20235;-66
2021/05/21 06:40:29;;;;;;;6.10;3.20;;;15.60;99.90;;;;;;5010944;28;20183;-66
2021/05/21 06:42:55;;;;;;;7.07;3.57;;;15.70;99.90;;;;;;5022979;28;20204;-66
2021/05/21 06:45:21;;;;;;;5.50;3.30;;;15.60;99.90;;;;;;5011340;28;20191;-66
2021/05/21 06:47:46;;;;;;;7.23;3.60;;;15.70;99.90;;;;;;5026058;28;20221;-66
2021/05/21 06:50:12;;;;;;;7.47;4.10;;;15.70;99.90;;;;;;5031010;28;20247;-66
2021/05/21 06:52:38;;;;;;;9.33;3.73;;;16.00;99.90;;;;;;5017145;28;20184;-66
2021/05/21 06:55:06;;;;;;;7.47;3.07;;;16.00;99.90;;;;;;5011403;28;20233;-66
2021/05/21 06:57:31;;;;;;;7.13;3.20;;;16.20;99.90;;;;;;5022537;28;20199;-66
2021/05/21 06:59:57;;;;;;;5.70;3.10;;;16.50;99.90;;;;;;5029844;28;20210;-65
2021/05/21 07:02:26;;;;;;;6.63;3.10;;;16.90;99.90;;;;;;5020548;28;20233;-65
2021/05/21 07:04:52;;;;;;;8.70;3.27;;;17.30;99.90;;;;;;5011137;28;20180;-65
2021/05/21 07:07:18;;;;;;;12.20;3.37;;;17.80;99.90;;;;;;5015591;28;20207;-68
2021/05/21 07:09:44;;;;;;;6.57;3.00;;;18.10;99.90;;;;;;5030688;28;20202;-66
2021/05/21 07:12:10;;;;;;;10.13;3.73;;;18.30;99.90;;;;;;5027337;28;20952;-66
2021/05/21 07:14:35;;;;;;;11.03;3.73;;;18.60;99.90;;;;;;5014790;28;20200;-63
2021/05/21 07:17:01;;;;;;;8.53;3.67;;;18.60;99.90;;;;;;5019014;28;20744;-66
2021/05/21 07:19:27;;;;;;;9.53;4.00;;;18.00;99.90;;;;;;5034702;28;20171;-67
2021/05/21 07:21:52;;;;;;;11.00;4.27;;;17.00;99.90;;;;;;5031105;28;20196;-66
2021/05/21 07:24:18;;;;;;;9.43;3.60;;;16.40;99.90;;;;;;5014433;28;20234;-66
2021/05/21 07:26:43;;;;;;;11.77;3.87;;;15.90;99.90;;;;;;5015533;28;20764;-65
2021/05/21 07:29:09;;;;;;;6.27;3.33;;;15.70;99.90;;;;;;5034315;28;20203;-66
2021/05/21 07:31:35;;;;;;;15.30;3.83;;;15.70;99.90;;;;;;5034053;28;20517;-66
2021/05/21 07:34:02;;;;;;;8.50;3.30;;;15.70;99.90;;;;;;5014765;28;20532;-65
2021/05/21 07:36:30;;;;;;;10.87;3.80;;;15.80;99.90;;;;;;5014437;28;20203;-65
2021/05/21 07:38:57;;;;;;;13.53;4.40;;;16.10;99.90;;;;;;5032103;28;20184;-65
2021/05/21 07:41:25;;;;;;;8.53;3.83;;;16.60;99.90;;;;;;5033792;28;20178;-66
2021/05/21 07:43:52;;;;;;;7.40;3.37;;;16.70;99.90;;;;;;5017609;28;20259;-66
2021/05/21 07:46:20;;;;;;;12.70;3.70;;;16.90;99.90;;;;;;5025537;28;20204;-66
2021/05/21 07:48:45;;;;;;;7.90;3.87;;;17.10;99.90;;;;;;5016374;28;20275;-66
2021/05/21 07:51:11;;;;;;;8.53;4.03;;;17.20;99.90;;;;;;5033632;28;20603;-66
2021/05/21 07:53:37;;;;;;;10.83;3.87;;;17.10;99.90;;;;;;5021547;28;20238;-66
2021/05/21 07:56:04;;;;;;;11.77;4.60;;;16.70;99.90;;;;;;5014115;28;20198;-65
2021/05/21 07:58:30;;;;;;;11.07;4.33;;;16.30;99.90;;;;;;5015015;28;20222;-66
2021/05/21 08:00:56;;;;;;;13.37;4.50;;;16.00;99.90;;;;;;5013854;28;20184;-66
2021/05/21 08:03:22;;;;;;;14.57;4.33;;;16.00;99.90;;;;;;5022240;28;20183;-66
2021/05/21 08:05:48;;;;;;;10.67;3.73;;;15.90;99.90;;;;;;5033929;28;20234;-66
2021/05/21 08:08:21;;;;;;;8.57;3.70;;;15.90;99.90;;;;;;5031865;28;20668;-66
2021/05/21 08:10:49;;;;;;;9.93;4.70;;;16.00;99.90;;;;;;5033529;28;20625;-65
2021/05/21 08:13:14;;;;;;;9.23;3.90;;;15.90;99.90;;;;;;5026971;28;20219;-66
2021/05/21 08:15:40;;;;;;;13.47;4.33;;;16.20;99.90;;;;;;5013759;28;20541;-66
2021/05/21 08:18:06;;;;;;;8.23;3.90;;;16.90;99.90;;;;;;5018112;28;20211;-63
2021/05/21 08:20:31;;;;;;;10.50;3.80;;;18.00;99.90;;;;;;5033264;28;20626;-64
2021/05/21 08:22:57;;;;;;;13.43;4.20;;;18.70;99.90;;;;;;5030403;28;20180;-64
2021/05/21 08:25:23;;;;;;;10.50;3.70;;;19.20;99.90;;;;;;5013363;28;20200;-64
2021/05/21 08:27:49;;;;;;;12.00;4.37;;;19.60;99.90;;;;;;5014122;28;20233;-64
2021/05/21 08:30:15;;;;;;;10.13;3.87;;;19.40;99.90;;;;;;5032947;28;20176;-64
2021/05/21 08:32:41;;;;;;;9.27;3.87;;;18.90;99.90;;;;;;5033257;28;20187;-64
2021/05/21 08:35:07;;;;;;;12.17;3.60;;;18.80;99.90;;;;;;5013828;28;20649;-64
2021/05/21 08:37:33;;;;;;;8.33;3.47;;;18.60;99.90;;;;;;5013230;28;20254;-67
2021/05/21 08:39:59;;;;;;;9.47;3.53;;;19.10;99.90;;;;;;5030126;28;20183;-62
2021/05/21 08:42:29;;;;;;;8.60;3.40;;;19.90;99.90;;;;;;5019570;28;20188;-64
2021/05/21 08:44:56;;;;;;;8.93;3.10;;;20.60;99.90;;;;;;5015222;28;20191;-64
2021/05/21 08:47:22;;;;;;;6.68;3.15;;;21.10;99.90;;;;;;5032888;28;20203;-63
2021/05/21 08:49:49;;;;;;;12.60;4.20;;;21.20;99.90;;;;;;5031880;28;20259;-63
2021/05/21 08:52:16;;;;;;;14.30;4.77;;;20.80;99.90;;;;;;5012979;28;20211;-63
2021/05/21 08:54:43;;;;;;;4.50;2.80;;;19.70;99.90;;;;;;5012836;28;20184;-65
2021/05/21 08:57:13;;;;;;;11.63;4.33;;;19.10;99.90;;;;;;5032063;28;20233;-66
2021/05/21 08:59:39;;;;;;;7.27;3.80;;;19.10;99.90;;;;;;5032810;28;20179;-66
2021/05/21 09:02:10;;;;;;;7.00;3.43;;;19.00;99.90;;;;;;5014182;28;20199;-65
2021/05/21 09:04:46;;;;;;;9.63;3.83;;;18.80;99.90;;;;;;5012699;28;20188;-66
2021/05/21 09:07:19;;;;;;;13.03;3.63;;;17.90;99.90;;;;;;5030889;28;20614;-66
2021/05/21 09:09:45;;;;;;;12.40;4.17;;;17.70;99.90;;;;;;5032365;28;20171;-65
2021/05/21 09:12:10;;;;;;;10.93;4.03;;;17.80;99.90;;;;;;5021494;28;20175;-65
2021/05/21 09:14:36;;;;;;;9.40;3.70;;;17.50;99.90;;;;;;5032234;28;20180;-67
2021/05/21 09:17:02;;;;;;;10.57;3.77;;;17.10;99.90;;;;;;5016607;28;20269;-66
2021/05/21 09:19:28;;;;;;;12.77;5.03;;;17.00;99.90;;;;;;5012513;28;20176;-66
2021/05/21 09:22:07;;;;;;;17.13;3.97;;;16.80;99.90;;;;;;5026215;28;20187;-66
2021/05/21 09:24:42;;;;;;;9.90;3.87;;;16.60;99.90;;;;;;5020741;28;20188;-65
2021/05/21 09:27:09;;;;;;;10.87;3.70;;;16.80;99.90;;;;;;5012440;28;20222;-66
2021/05/21 09:29:50;;;;;;;10.53;3.83;;;17.30;99.90;;;;;;5022767;28;20207;-66
2021/05/21 09:32:18;;;;;;;9.87;3.63;;;18.20;99.90;;;;;;5030517;28;20175;-66
2021/05/21 09:34:48;;;;;;;12.37;3.77;;;19.00;99.90;;;;;;5020325;28;20181;-63
2021/05/21 09:37:24;;;;;;;7.03;3.53;;;19.80;99.90;;;;;;5021832;28;20211;-63
2021/05/21 09:40:04;;;;;;;7.25;3.20;;;20.30;99.90;;;;;;5020516;28;20175;-64
2021/05/21 09:42:42;;;;;;;9.20;3.67;;;20.70;99.90;;;;;;5017365;28;20554;-63
2021/05/21 09:45:14;;;;;;;5.05;3.22;;;21.10;99.90;;;;;;5020551;28;20270;-64
2021/05/21 09:48:00;;;;;;;4.45;2.80;;;21.30;99.90;;;;;;5030241;28;20229;-63
2021/05/21 09:50:40;;;;;;;11.43;3.53;;;20.80;99.90;;;;;;5020429;28;20997;-63
2021/05/21 09:53:24;;;;;;;7.30;3.40;;;20.30;99.90;;;;;;5045499;28;20175;-64
2021/05/21 09:55:59;;;;;;;8.70;3.87;;;19.80;99.90;;;;;;5024219;28;20555;-64
2021/05/21 09:58:37;;;;;;;9.95;3.17;;;20.00;99.90;;;;;;5027178;28;20301;-64
2021/05/21 10:01:20;;;;;;;10.27;3.80;;;20.70;99.90;;;;;;5031416;28;20547;-64
2021/05/21 10:03:54;;;;;;;8.85;4.20;;;21.10;99.90;;;;;;5024867;28;20186;-63
2021/05/21 10:06:24;;;;;;;7.70;3.30;;;20.80;99.90;;;;;;5031176;28;20202;-64
2021/05/21 10:08:52;;;;;;;8.30;3.43;;;20.60;99.90;;;;;;5021805;28;20176;-64
2021/05/21 10:11:18;;;;;;;11.05;3.50;;;20.50;99.90;;;;;;5024722;28;20187;-63
2021/05/21 10:13:46;;;;;;;9.43;3.70;;;20.60;99.90;;;;;;5026664;28;20198;-64
2021/05/21 10:16:20;;;;;;;10.80;3.60;;;20.40;99.90;;;;;;5029486;28;20183;-63
2021/05/21 10:18:48;;;;;;;8.57;3.90;;;19.90;99.50;;;;;;5057008;22;20722;-64
2021/05/21 10:21:15;;;;;;;15.97;4.43;;;19.50;99.90;;;;;;5044214;28;20187;-67
2021/05/21 10:24:02;;;;;;;11.60;3.90;;;19.50;99.90;;;;;;5040212;28;20190;-64
2021/05/21 10:26:38;;;;;;;10.67;4.00;;;19.40;99.90;;;;;;5051053;28;20251;-63
2021/05/21 10:29:10;;;;;;;13.53;4.87;;;19.10;99.90;;;;;;5016257;28;20183;-62
2021/05/21 10:31:36;;;;;;;11.77;4.67;;;18.70;99.90;;;;;;5011295;28;20199;-64
2021/05/21 10:34:14;;;;;;;13.00;4.13;;;18.80;99.90;;;;;;5016454;28;20653;-64
2021/05/21 10:36:40;;;;;;;11.77;3.63;;;19.60;99.90;;;;;;5017268;28;20176;-64
2021/05/21 10:39:13;;;;;;;11.90;4.03;;;20.30;99.90;;;;;;5012124;28;20187;-64
2021/05/21 10:41:58;;;;;;;8.63;3.63;;;20.90;99.90;;;;;;5031195;28;20266;-63
2021/05/21 10:44:37;;;;;;;9.20;4.30;;;20.80;99.90;;;;;;5032270;28;20187;-63
2021/05/21 10:47:19;;;;;;;11.37;4.47;;;19.90;99.50;;;;;;5035466;28;20202;-64
2021/05/21 10:49:51;;;;;;;8.63;3.37;;;19.50;99.90;;;;;;5033020;28;20179;-64
2021/05/21 10:52:17;;;;;;;10.87;3.90;;;19.60;99.90;;;;;;5035132;28;20536;-64
2021/05/21 10:54:44;;;;;;;13.02;3.95;;;19.50;99.90;;;;;;5022446;28;20178;-64
2021/05/21 10:57:14;;;;;;;10.30;3.90;;;20.00;99.90;;;;;;5035293;28;20322;-64
2021/05/21 10:59:58;;;;;;;9.18;3.50;;;20.70;99.90;;;;;;5026039;28;20188;-64
2021/05/21 11:02:25;;;;;;;7.88;3.20;;;21.30;98.80;;;;;;5015187;28;20216;-64
2021/05/21 11:04:55;;;;;;;11.27;3.65;;;21.10;98.60;;;;;;5015787;28;20192;-64
2021/05/21 11:07:43;;;;;;;13.90;3.50;;;21.60;99.50;;;;;;5027309;28;20298;-63
2021/05/21 11:10:43;;;;;;;9.32;3.25;;;21.30;98.30;;;;;;5027226;28;20322;-64
2021/05/21 11:13:15;;;;;;;6.45;3.08;;;21.20;99.90;;;;;;5019322;28;20204;-64
2021/05/21 11:15:41;;;;;;;10.73;4.47;;;21.30;98.50;;;;;;5015113;28;20188;-64
2021/05/21 11:18:24;;;;;;;11.40;4.30;;;21.20;98.50;;;;;;5029220;28;20216;-64
2021/05/21 11:21:08;;;;;;;10.40;3.47;;;20.90;99.90;;;;;;5026589;28;20176;-63
2021/05/21 11:23:38;;;;;;;8.43;3.40;;;20.70;99.60;;;;;;5023392;28;20183;-64
2021/05/21 11:26:25;;;;;;;7.87;3.33;;;20.50;99.50;;;;;;5034754;28;20207;-63
2021/05/21 11:28:59;;;;;;;10.85;3.78;;;20.70;99.90;;;;;;5023746;28;20200;-64
2021/05/21 11:31:29;;;;;;;8.98;3.80;;;21.50;99.40;;;;;;5014483;28;20179;-64
2021/05/21 11:33:59;;;;;;;8.68;3.22;;;21.90;99.70;;;;;;5026251;28;20179;-64
2021/05/21 11:36:25;;;;;;;10.77;3.47;;;22.10;97.30;;;;;;5034453;28;20183;-64
2021/05/21 11:38:52;;;;;;;6.43;3.00;;;22.40;97.60;;;;;;5026042;28;20216;-64
2021/05/21 11:41:26;;;;;;;7.50;3.17;;;21.80;97.30;;;;;;5022236;28;20180;-64
2021/05/21 11:43:52;;;;;;;8.00;3.35;;;21.50;97.10;;;;;;5022057;28;20187;-64
2021/05/21 11:46:20;;;;;;;11.38;4.38;;;21.40;98.10;;;;;;5033962;28;20199;-63
2021/05/21 11:48:47;;;;;;;9.85;3.40;;;21.30;98.80;;;;;;5028751;28;20196;-64
2021/05/21 11:51:24;;;;;;;9.05;3.50;;;21.90;96.90;;;;;;5014312;28;20172;-64
2021/05/21 11:54:05;;;;;;;7.70;3.38;;;22.00;96.60;;;;;;5019800;28;20203;-64
2021/05/21 11:56:38;;;;;;;10.50;3.65;;;21.60;99.50;;;;;;5033141;28;20181;-64
2021/05/21 11:59:04;;;;;;;8.68;4.13;;;21.40;98.40;;;;;;5021439;28;20246;-64
2021/05/21 12:01:32;;;;;;;7.57;3.33;;;21.80;97.10;;;;;;5033084;28;20269;-64
2021/05/21 12:04:06;;;;;;;8.52;3.47;;;21.90;97.20;;;;;;5026315;28;20210;-64
2021/05/21 12:06:33;;;;;;;4.65;2.92;;;21.40;96.10;;;;;;5030134;28;20278;-63
2021/05/21 12:08:59;;;;;;;11.95;4.20;;;21.40;95.80;;;;;;5031109;28;20192;-64
2021/05/21 12:11:26;;;;;;;8.18;3.30;;;21.40;93.70;;;;;;5014213;28;20184;-65
2021/05/21 12:13:52;;;;;;;6.18;2.95;;;21.30;94.60;;;;;;5030847;28;20183;-63
2021/05/21 12:16:19;;;;;;;11.30;3.80;;;21.60;95.30;;;;;;5021052;28;20202;-64
2021/05/21 12:18:46;;;;;;;7.97;3.20;;;21.20;94.50;;;;;;5033834;28;20679;-64
2021/05/21 12:21:19;;;;;;;9.23;3.17;;;20.70;94.30;;;;;;5016885;28;20184;-64
2021/05/21 12:23:45;;;;;;;11.70;4.20;;;20.40;95.40;;;;;;5014080;28;20230;-63
2021/05/21 12:26:12;;;;;;;11.67;4.10;;;20.20;96.60;;;;;;5029520;28;20199;-63
2021/05/21 12:28:39;;;;;;;10.18;3.53;;;20.60;97.10;;;;;;5024113;28;20275;-64
2021/05/21 12:31:06;;;;;;;9.40;3.67;;;21.50;97.00;;;;;;5024528;28;20202;-63
2021/05/21 12:33:37;;;;;;;11.05;3.67;;;21.70;96.00;;;;;;5024799;28;20231;-63
2021/05/21 12:36:08;;;;;;;8.80;3.22;;;21.70;95.90;;;;;;5013814;28;20219;-64
2021/05/21 12:38:34;;;;;;;10.82;4.10;;;21.90;95.10;;;;;;5015487;28;20195;-64
2021/05/21 12:41:00;;;;;;;8.32;3.30;;;22.20;93.20;;;;;;5020373;28;20182;-65
2021/05/21 12:43:32;;;;;;;10.25;3.03;;;22.20;92.90;;;;;;5019865;28;20179;-64
2021/05/21 12:46:02;;;;;;;7.90;3.58;;;21.90;94.20;;;;;;5024026;28;20579;-64
2021/05/21 12:48:35;;;;;;;10.67;4.00;;;21.60;94.10;;;;;;5017708;28;20196;-64